createdAt,value
2017-12-13T00:00:32.315Z,0.70
2017-12-13T00:01:35.376Z,0.74
2017-12-13T00:02:38.336Z,0.84
2017-12-13T00:03:41.303Z,0.82
2017-12-13T00:04:44.275Z,0.75
2017-12-13T00:05:47.534Z,0.79
2017-12-13T00:06:50.504Z,0.73
2017-12-13T00:07:53.434Z,0.75
2017-12-13T00:08:56.373Z,0.78
2017-12-13T00:09:59.310Z,0.76
2017-12-13T00:11:02.287Z,0.67
2017-12-13T00:12:05.513Z,0.75
2017-12-13T00:13:08.447Z,0.71
2017-12-13T00:14:11.408Z,0.76
2017-12-13T00:15:14.434Z,0.78
2017-12-13T00:16:17.576Z,0.67
2017-12-13T00:17:20.587Z,0.78
2017-12-13T00:18:23.827Z,0.72
2017-12-13T00:19:26.755Z,0.73
2017-12-13T00:20:29.606Z,0.75
2017-12-13T00:21:32.537Z,0.73
2017-12-13T00:22:35.485Z,0.80
2017-12-13T00:23:38.419Z,0.80
2017-12-13T00:24:41.673Z,0.66
2017-12-13T00:25:44.615Z,0.67
2017-12-13T00:26:47.635Z,0.77
2017-12-13T00:27:50.567Z,0.63
2017-12-13T00:28:53.537Z,0.73
2017-12-13T00:29:56.515Z,0.81
2017-12-13T00:30:59.776Z,0.78
2017-12-13T00:32:02.653Z,0.71
2017-12-13T00:33:05.628Z,0.70
2017-12-13T00:34:08.665Z,0.75
2017-12-13T00:35:12.508Z,0.63
2017-12-13T00:36:15.517Z,0.65
2017-12-13T00:37:18.746Z,0.59
2017-12-13T00:38:21.672Z,0.61
2017-12-13T00:39:24.576Z,0.56
2017-12-13T00:40:27.515Z,0.61
2017-12-13T00:41:30.454Z,0.68
2017-12-13T00:42:33.364Z,0.56
2017-12-13T00:43:36.257Z,0.68
2017-12-13T00:44:39.230Z,0.60
2017-12-13T00:45:42.142Z,0.69
2017-12-13T00:46:45.098Z,0.61
2017-12-13T00:47:48.009Z,0.60
2017-12-13T00:48:50.994Z,0.58
2017-12-13T00:49:54.228Z,0.59
2017-12-13T00:50:57.156Z,0.58
2017-12-13T00:52:00.130Z,0.54
2017-12-13T00:53:03.127Z,0.59
2017-12-13T00:54:06.087Z,0.48
2017-12-13T00:55:08.997Z,0.58
2017-12-13T00:56:12.227Z,0.49
2017-12-13T00:57:15.207Z,0.57
2017-12-13T00:58:18.144Z,0.54
2017-12-13T00:59:21.072Z,0.57
2017-12-13T01:00:24.002Z,0.60
2017-12-13T01:01:26.908Z,0.58
2017-12-13T01:02:30.094Z,0.60
2017-12-13T01:03:33.043Z,0.49
2017-12-13T01:04:35.956Z,0.48
2017-12-13T01:05:38.949Z,0.51
2017-12-13T01:06:41.896Z,0.50
2017-12-13T01:07:44.851Z,0.44
2017-12-13T01:08:48.126Z,0.35
2017-12-13T01:09:51.113Z,0.36
2017-12-13T01:10:54.032Z,0.40
2017-12-13T01:11:56.924Z,0.46
2017-12-13T01:12:59.855Z,0.42
2017-12-13T01:14:02.836Z,0.43
2017-12-13T01:15:06.095Z,0.43
2017-12-13T01:16:09.061Z,0.37
2017-12-13T01:17:12.026Z,0.40
2017-12-13T01:18:14.948Z,0.42
2017-12-13T01:19:17.869Z,0.41
2017-12-13T01:20:20.768Z,0.27
2017-12-13T01:21:23.983Z,0.35
2017-12-13T01:22:26.952Z,0.29
2017-12-13T01:23:29.884Z,0.36
2017-12-13T01:24:32.815Z,0.37
2017-12-13T01:25:35.762Z,0.43
2017-12-13T01:26:38.797Z,0.39
2017-12-13T01:27:42.135Z,0.33
2017-12-13T01:28:45.132Z,0.36
2017-12-13T01:29:48.097Z,0.30
2017-12-13T01:30:51.057Z,0.43
2017-12-13T01:31:53.960Z,0.44
2017-12-13T01:32:56.902Z,0.38
2017-12-13T01:34:00.208Z,0.47
2017-12-13T01:35:03.154Z,0.40
2017-12-13T01:36:06.070Z,0.46
2017-12-13T01:37:08.972Z,0.44
2017-12-13T01:38:11.876Z,0.44
2017-12-13T01:39:14.785Z,0.38
2017-12-13T01:40:17.985Z,0.34
2017-12-13T01:41:20.927Z,0.39
2017-12-13T01:42:24.837Z,0.38
2017-12-13T01:43:27.729Z,0.36
2017-12-13T01:44:30.624Z,0.30
2017-12-13T01:45:33.525Z,0.43
2017-12-13T01:46:36.744Z,0.30
2017-12-13T01:47:39.711Z,0.26
2017-12-13T01:48:42.631Z,0.29
2017-12-13T01:49:45.602Z,0.28
2017-12-13T01:50:48.557Z,0.33
2017-12-13T01:51:51.476Z,0.25
2017-12-13T01:52:54.667Z,0.28
2017-12-13T01:53:57.969Z,0.15
2017-12-13T01:55:00.878Z,0.12
2017-12-13T01:56:03.841Z,0.27
2017-12-13T01:57:06.830Z,0.23
2017-12-13T01:58:09.795Z,0.29
2017-12-13T01:59:13.006Z,0.18
2017-12-13T02:00:15.923Z,0.20
2017-12-13T02:01:18.845Z,0.21
2017-12-13T02:02:21.816Z,0.21
2017-12-13T02:03:24.754Z,0.21
2017-12-13T02:04:27.658Z,0.26
2017-12-13T02:05:36.094Z,0.23
2017-12-13T02:06:39.256Z,0.25
2017-12-13T02:07:42.467Z,0.24
2017-12-13T02:08:45.312Z,0.23
2017-12-13T02:09:48.174Z,0.20
2017-12-13T02:10:51.032Z,0.08
2017-12-13T02:11:54.217Z,0.13
2017-12-13T02:12:57.075Z,0.22
2017-12-13T02:14:00.006Z,0.22
2017-12-13T02:15:02.906Z,0.19
2017-12-13T02:16:05.822Z,0.25
2017-12-13T02:17:08.715Z,0.14
2017-12-13T02:18:11.643Z,0.10
2017-12-13T02:19:14.606Z,0.20
2017-12-13T02:20:17.537Z,0.16
2017-12-13T02:21:20.883Z,0.15
2017-12-13T02:22:24.079Z,0.15
2017-12-13T02:23:26.982Z,0.21
2017-12-13T02:24:30.317Z,0.17
2017-12-13T02:25:33.260Z,0.14
2017-12-13T02:26:36.136Z,0.09
2017-12-13T02:27:39.785Z,0.10
2017-12-13T02:28:42.625Z,0.03
2017-12-13T02:29:45.596Z,0.12
2017-12-13T02:30:48.773Z,0.15
2017-12-13T02:31:51.737Z,0.18
2017-12-13T02:32:54.658Z,0.13
2017-12-13T02:33:57.467Z,-0.08
2017-12-13T02:35:00.439Z,0.05
2017-12-13T02:36:03.473Z,0.02
2017-12-13T02:37:06.750Z,0.02
2017-12-13T02:38:09.729Z,-0.03
2017-12-13T02:39:12.710Z,0.08
2017-12-13T02:40:15.791Z,0.04
2017-12-13T02:41:18.794Z,-0.06
2017-12-13T02:42:21.730Z,0.00
2017-12-13T02:43:25.058Z,0.08
2017-12-13T02:44:28.051Z,0.03
2017-12-13T02:45:30.885Z,0.04
2017-12-13T02:46:33.731Z,-0.07
2017-12-13T02:47:36.671Z,-0.06
2017-12-13T02:48:39.610Z,0.00
2017-12-13T02:49:42.852Z,0.04
2017-12-13T02:50:45.825Z,-0.03
2017-12-13T02:51:48.832Z,0.04
2017-12-13T02:52:51.765Z,0.09
2017-12-13T02:53:54.718Z,0.04
2017-12-13T02:54:57.670Z,0.12
2017-12-13T02:56:00.898Z,0.00
2017-12-13T02:57:03.867Z,-0.09
2017-12-13T02:58:09.703Z,0.00
2017-12-13T02:59:12.686Z,0.13
2017-12-13T03:00:15.673Z,0.06
2017-12-13T03:01:18.696Z,0.04
2017-12-13T03:02:21.940Z,0.13
2017-12-13T03:03:25.031Z,-0.01
2017-12-13T03:04:28.073Z,0.15
2017-12-13T03:05:31.107Z,0.13
2017-12-13T03:06:34.086Z,0.16
2017-12-13T03:07:37.463Z,0.09
2017-12-13T03:08:40.747Z,0.08
2017-12-13T03:09:43.665Z,0.01
2017-12-13T03:10:46.650Z,0.12
2017-12-13T03:11:49.683Z,0.15
2017-12-13T03:12:52.728Z,0.10
2017-12-13T03:13:55.915Z,0.13
2017-12-13T03:14:59.481Z,0.14
2017-12-13T03:16:02.882Z,0.19
2017-12-13T03:17:05.873Z,0.20
2017-12-13T03:18:08.865Z,0.24
2017-12-13T03:19:12.546Z,0.35
2017-12-13T03:20:16.464Z,0.36
2017-12-13T03:21:19.644Z,0.31
2017-12-13T03:22:22.581Z,0.28
2017-12-13T03:23:25.565Z,0.20
2017-12-13T03:24:28.496Z,0.16
2017-12-13T03:25:31.429Z,0.33
2017-12-13T03:26:34.388Z,0.33
2017-12-13T03:27:37.593Z,0.33
2017-12-13T03:28:40.562Z,0.45
2017-12-13T03:29:43.501Z,0.31
2017-12-13T03:30:46.422Z,0.41
2017-12-13T03:31:49.330Z,0.27
2017-12-13T03:32:52.312Z,0.38
2017-12-13T03:33:55.536Z,0.31
2017-12-13T03:34:58.483Z,0.32
2017-12-13T03:36:01.339Z,0.39
2017-12-13T03:37:04.274Z,0.36
2017-12-13T03:38:07.239Z,0.30
2017-12-13T03:39:10.468Z,0.39
2017-12-13T03:40:13.758Z,0.38
2017-12-13T03:41:16.728Z,0.42
2017-12-13T03:42:19.547Z,0.39
2017-12-13T03:43:22.364Z,0.55
2017-12-13T03:44:25.183Z,0.51
2017-12-13T03:45:28.061Z,0.50
2017-12-13T03:46:31.271Z,0.50
2017-12-13T03:47:34.128Z,0.48
2017-12-13T03:48:37.040Z,0.41
2017-12-13T03:49:39.916Z,0.42
2017-12-13T03:50:42.848Z,0.50
2017-12-13T03:51:45.718Z,0.50
2017-12-13T03:52:48.614Z,0.48
2017-12-13T03:53:51.474Z,0.50
2017-12-13T03:54:54.362Z,0.56
2017-12-13T03:55:57.269Z,0.53
2017-12-13T03:57:00.160Z,0.53
2017-12-13T03:58:03.023Z,0.49
2017-12-13T03:59:06.167Z,0.55
2017-12-13T04:00:09.085Z,0.51
2017-12-13T04:01:12.043Z,0.52
2017-12-13T04:02:15.007Z,0.52
2017-12-13T04:03:18.047Z,0.53
2017-12-13T04:04:20.950Z,0.53
2017-12-13T04:05:24.170Z,0.56
2017-12-13T04:06:27.143Z,0.53
2017-12-13T04:07:30.130Z,0.51
2017-12-13T04:08:33.068Z,0.56
2017-12-13T04:09:35.960Z,0.47
2017-12-13T04:10:38.832Z,0.48
2017-12-13T04:11:41.992Z,0.55
2017-12-13T04:12:44.923Z,0.56
2017-12-13T04:13:47.799Z,0.55
2017-12-13T04:14:50.786Z,0.50
2017-12-13T04:15:53.683Z,0.62
2017-12-13T04:16:56.625Z,0.64
2017-12-13T04:17:59.834Z,0.61
2017-12-13T04:19:02.857Z,0.56
2017-12-13T04:20:05.766Z,0.63
2017-12-13T04:21:08.722Z,0.70
2017-12-13T04:22:11.661Z,0.68
2017-12-13T04:23:14.696Z,0.70
2017-12-13T04:24:17.910Z,0.80
2017-12-13T04:25:20.896Z,0.63
2017-12-13T04:26:23.860Z,0.58
2017-12-13T04:27:26.999Z,0.58
2017-12-13T04:28:29.949Z,0.56
2017-12-13T04:29:32.866Z,0.56
2017-12-13T04:30:36.092Z,0.55
2017-12-13T04:31:38.999Z,0.57
2017-12-13T04:32:41.925Z,0.70
2017-12-13T04:33:44.916Z,0.57
2017-12-13T04:34:47.872Z,0.70
2017-12-13T04:35:50.825Z,0.79
2017-12-13T04:36:54.059Z,0.59
2017-12-13T04:37:57.012Z,0.64
2017-12-13T04:39:00.069Z,0.81
2017-12-13T04:40:03.014Z,0.73
2017-12-13T04:41:05.946Z,0.71
2017-12-13T04:42:09.179Z,0.82
2017-12-13T04:43:12.080Z,0.65
2017-12-13T04:44:15.015Z,0.68
2017-12-13T04:45:17.943Z,0.81
2017-12-13T04:46:20.873Z,0.73
2017-12-13T04:47:23.833Z,0.67
2017-12-13T04:48:27.096Z,0.71
2017-12-13T04:49:30.054Z,0.60
2017-12-13T04:50:33.016Z,0.66
2017-12-13T04:51:35.974Z,0.70
2017-12-13T04:52:38.945Z,0.57
2017-12-13T04:53:41.863Z,0.53
2017-12-13T04:54:45.109Z,0.54
2017-12-13T04:55:48.106Z,0.51
2017-12-13T04:56:51.085Z,0.67
2017-12-13T04:57:54.048Z,0.70
2017-12-13T04:58:57.016Z,0.68
2017-12-13T04:59:59.945Z,0.66
2017-12-13T05:01:03.209Z,0.69
2017-12-13T05:02:06.124Z,0.66
2017-12-13T05:03:09.068Z,0.72
2017-12-13T05:04:12.025Z,0.78
2017-12-13T05:05:14.978Z,0.70
2017-12-13T05:06:17.966Z,0.73
2017-12-13T05:07:20.935Z,0.70
2017-12-13T05:08:23.977Z,0.76
2017-12-13T05:09:26.925Z,0.62
2017-12-13T05:10:29.864Z,0.66
2017-12-13T05:11:32.859Z,0.64
2017-12-13T05:12:36.112Z,0.79
2017-12-13T05:13:39.081Z,0.69
2017-12-13T05:14:42.026Z,0.72
2017-12-13T05:15:44.964Z,0.88
2017-12-13T05:16:47.952Z,0.81
2017-12-13T05:17:50.913Z,0.83
2017-12-13T05:18:53.856Z,0.88
2017-12-13T05:19:56.805Z,0.90
2017-12-13T05:20:59.725Z,0.91
2017-12-13T05:22:02.698Z,0.94
2017-12-13T05:23:05.663Z,0.89
2017-12-13T05:24:08.850Z,0.93
2017-12-13T05:25:11.773Z,0.80
2017-12-13T05:26:14.702Z,0.86
2017-12-13T05:27:17.715Z,0.83
2017-12-13T05:28:20.654Z,0.80
2017-12-13T05:29:23.629Z,0.95
2017-12-13T05:30:27.032Z,0.86
2017-12-13T05:31:29.922Z,0.90
2017-12-13T05:32:32.788Z,0.96
2017-12-13T05:33:35.640Z,0.97
2017-12-13T05:34:38.551Z,1.00
2017-12-13T05:35:41.397Z,1.08
2017-12-13T05:36:44.663Z,1.01
2017-12-13T05:37:47.655Z,1.04
2017-12-13T05:38:50.601Z,1.04
2017-12-13T05:39:53.572Z,1.01
2017-12-13T05:40:56.527Z,1.03
2017-12-13T05:41:59.506Z,1.12
2017-12-13T05:43:02.982Z,1.05
2017-12-13T05:44:05.935Z,1.09
2017-12-13T05:45:08.913Z,1.12
2017-12-13T05:46:11.970Z,1.15
2017-12-13T05:47:14.958Z,1.13
2017-12-13T05:48:17.872Z,1.16
2017-12-13T05:49:21.119Z,1.17
2017-12-13T05:50:24.006Z,1.14
2017-12-13T05:51:26.860Z,1.15
2017-12-13T05:52:29.716Z,1.19
2017-12-13T05:53:32.723Z,1.17
2017-12-13T05:54:35.679Z,1.14
2017-12-13T05:55:38.921Z,1.15
2017-12-13T05:56:41.865Z,1.13
2017-12-13T05:57:44.795Z,1.14
2017-12-13T05:58:47.744Z,1.20
2017-12-13T05:59:50.748Z,1.14
2017-12-13T06:00:53.717Z,1.20
2017-12-13T06:01:56.936Z,1.15
2017-12-13T06:02:59.924Z,1.21
2017-12-13T06:04:03.368Z,1.21
2017-12-13T06:05:06.258Z,1.16
2017-12-13T06:06:09.211Z,1.25
2017-12-13T06:07:12.256Z,1.19
2017-12-13T06:08:15.628Z,1.21
2017-12-13T06:09:18.545Z,1.21
2017-12-13T06:10:21.576Z,1.20
2017-12-13T06:11:24.511Z,1.23
2017-12-13T06:12:27.489Z,1.30
2017-12-13T06:13:30.464Z,1.25
2017-12-13T06:14:33.431Z,1.26
2017-12-13T06:15:36.517Z,1.20
2017-12-13T06:16:39.490Z,1.21
2017-12-13T06:17:42.459Z,1.25
2017-12-13T06:18:45.434Z,1.25
2017-12-13T06:19:48.449Z,1.27
2017-12-13T06:20:51.888Z,1.24
2017-12-13T06:21:54.909Z,1.23
2017-12-13T06:22:57.948Z,1.25
2017-12-13T06:24:00.943Z,1.23
2017-12-13T06:25:03.959Z,1.26
2017-12-13T06:26:08.407Z,1.33
2017-12-13T06:27:12.011Z,1.25
2017-12-13T06:28:15.006Z,1.24
2017-12-13T06:29:17.914Z,1.29
2017-12-13T06:30:20.843Z,1.31
2017-12-13T06:31:23.938Z,1.25
2017-12-13T06:32:26.886Z,1.25
2017-12-13T06:33:30.180Z,1.30
2017-12-13T06:34:33.147Z,1.27
2017-12-13T06:35:36.420Z,1.27
2017-12-13T06:36:39.395Z,1.26
2017-12-13T06:37:43.067Z,1.25
2017-12-13T06:38:45.949Z,1.29
2017-12-13T06:39:57.772Z,1.30
2017-12-13T06:41:00.735Z,1.27
2017-12-13T06:42:03.785Z,1.24
2017-12-13T06:43:06.776Z,1.34
2017-12-13T06:44:09.753Z,1.34
2017-12-13T06:45:12.736Z,1.32
2017-12-13T06:46:16.080Z,1.35
2017-12-13T06:47:19.053Z,1.29
2017-12-13T06:48:22.016Z,1.37
2017-12-13T06:49:25.003Z,1.36
2017-12-13T06:50:27.984Z,1.34
2017-12-13T06:51:30.944Z,1.37
2017-12-13T06:52:34.312Z,1.39
2017-12-13T06:53:37.265Z,1.40
2017-12-13T06:54:40.223Z,1.40
2017-12-13T06:55:44.063Z,1.39
2017-12-13T06:56:47.029Z,1.40
2017-12-13T06:57:49.984Z,1.48
2017-12-13T06:58:53.384Z,1.42
2017-12-13T06:59:56.455Z,1.45
2017-12-13T07:00:59.414Z,1.54
2017-12-13T07:02:02.476Z,1.53
2017-12-13T07:03:05.406Z,1.51
2017-12-13T07:04:08.794Z,1.53
2017-12-13T07:05:11.734Z,1.53
2017-12-13T07:06:14.732Z,1.50
2017-12-13T07:07:17.618Z,1.46
2017-12-13T07:08:20.615Z,1.51
2017-12-13T07:09:23.629Z,1.51
2017-12-13T07:10:26.898Z,1.51
2017-12-13T07:11:29.860Z,1.53
2017-12-13T07:12:32.836Z,1.50
2017-12-13T07:13:35.876Z,1.51
2017-12-13T07:14:38.806Z,1.51
2017-12-13T07:15:41.785Z,1.50
2017-12-13T07:16:45.043Z,1.46
2017-12-13T07:17:48.018Z,1.47
2017-12-13T07:18:51.000Z,1.49
2017-12-13T07:19:54.003Z,1.49
2017-12-13T07:20:56.969Z,1.54
2017-12-13T07:21:59.999Z,1.57
2017-12-13T07:23:03.017Z,1.57
2017-12-13T07:24:05.910Z,1.56
2017-12-13T07:25:08.819Z,1.50
2017-12-13T07:26:11.803Z,1.51
2017-12-13T07:27:14.823Z,1.51
2017-12-13T07:28:18.153Z,1.54
2017-12-13T07:29:21.132Z,1.45
2017-12-13T07:30:24.119Z,1.42
2017-12-13T07:31:27.127Z,1.46
2017-12-13T07:32:30.144Z,1.51
2017-12-13T07:33:33.837Z,1.49
2017-12-13T07:34:37.302Z,1.55
2017-12-13T07:35:40.764Z,1.59
2017-12-13T07:36:43.719Z,1.58
2017-12-13T07:37:46.759Z,1.58
2017-12-13T07:38:49.746Z,1.60
2017-12-13T07:39:52.816Z,1.63
2017-12-13T07:40:56.116Z,1.61
2017-12-13T07:41:59.064Z,1.63
2017-12-13T07:43:02.070Z,1.67
2017-12-13T07:44:05.209Z,1.63
2017-12-13T07:45:08.257Z,1.68
2017-12-13T07:46:11.164Z,1.67
2017-12-13T07:47:14.445Z,1.66
2017-12-13T07:48:17.425Z,1.63
2017-12-13T07:49:20.604Z,1.66
2017-12-13T07:50:23.588Z,1.68
2017-12-13T07:51:26.555Z,1.68
2017-12-13T07:52:29.568Z,1.67
2017-12-13T07:53:33.060Z,1.71
2017-12-13T07:54:36.133Z,1.72
2017-12-13T07:55:39.087Z,1.73
2017-12-13T07:56:42.073Z,1.70
2017-12-13T07:57:45.123Z,1.70
2017-12-13T07:58:48.142Z,1.70
2017-12-13T07:59:51.472Z,1.71
2017-12-13T08:00:54.768Z,1.76
2017-12-13T08:01:57.754Z,1.73
2017-12-13T08:03:00.802Z,1.76
2017-12-13T08:04:03.830Z,1.75
2017-12-13T08:05:06.783Z,1.76
2017-12-13T08:06:10.106Z,1.75
2017-12-13T08:07:13.074Z,1.79
2017-12-13T08:08:16.259Z,1.76
2017-12-13T08:09:19.266Z,1.81
2017-12-13T08:10:22.203Z,1.80
2017-12-13T08:11:25.115Z,1.79
2017-12-13T08:12:29.274Z,1.83
2017-12-13T08:13:32.176Z,1.83
2017-12-13T08:14:35.300Z,1.80
2017-12-13T08:15:38.225Z,1.86
2017-12-13T08:16:41.202Z,1.84
2017-12-13T08:17:44.132Z,1.82
2017-12-13T08:18:47.442Z,1.86
2017-12-13T08:19:50.424Z,1.89
2017-12-13T08:20:53.423Z,1.88
2017-12-13T08:21:57.128Z,1.81
2017-12-13T08:23:00.045Z,1.90
2017-12-13T08:24:03.032Z,1.87
2017-12-13T08:25:06.416Z,1.88
2017-12-13T08:26:09.395Z,1.80
2017-12-13T08:27:12.327Z,2.01
2017-12-13T08:28:15.270Z,1.90
2017-12-13T08:29:18.304Z,1.82
2017-12-13T08:30:21.268Z,1.81
2017-12-13T08:31:24.701Z,1.81
2017-12-13T08:32:27.695Z,1.94
2017-12-13T08:33:30.631Z,1.82
2017-12-13T08:34:33.648Z,1.88
2017-12-13T08:35:36.655Z,1.86
2017-12-13T08:36:39.764Z,1.88
2017-12-13T08:37:43.024Z,1.87
2017-12-13T08:38:46.118Z,1.87
2017-12-13T08:39:49.130Z,1.84
2017-12-13T08:40:52.121Z,1.88
2017-12-13T08:41:55.218Z,1.85
2017-12-13T08:42:58.251Z,1.87
2017-12-13T08:44:01.782Z,1.85
2017-12-13T08:45:04.815Z,1.87
2017-12-13T08:46:07.859Z,1.87
2017-12-13T08:47:11.498Z,1.89
2017-12-13T08:48:14.576Z,1.86
2017-12-13T08:49:17.739Z,1.86
2017-12-13T08:50:21.276Z,1.86
2017-12-13T08:51:24.177Z,1.82
2017-12-13T08:53:38.156Z,1.83
2017-12-13T08:54:41.338Z,1.88
2017-12-13T08:55:44.303Z,1.88
2017-12-13T08:56:47.595Z,1.90
2017-12-13T08:57:50.697Z,1.88
2017-12-13T08:58:53.706Z,1.87
2017-12-13T08:59:56.841Z,1.88
2017-12-13T09:00:59.874Z,1.84
2017-12-13T09:02:02.852Z,1.82
2017-12-13T09:03:06.295Z,1.89
2017-12-13T09:04:09.266Z,1.83
2017-12-13T09:05:12.366Z,1.84
2017-12-13T09:06:15.335Z,1.84
2017-12-13T09:07:18.309Z,1.83
2017-12-13T09:08:21.314Z,1.82
2017-12-13T09:09:24.797Z,1.90
2017-12-13T09:10:27.802Z,1.88
2017-12-13T09:11:30.684Z,1.83
2017-12-13T09:12:33.816Z,1.82
2017-12-13T09:13:36.791Z,1.84
2017-12-13T09:14:39.767Z,1.78
2017-12-13T09:15:43.258Z,1.85
2017-12-13T09:16:46.250Z,1.82
2017-12-13T09:17:49.272Z,1.82
2017-12-13T09:18:52.256Z,1.80
2017-12-13T09:19:55.261Z,1.83
2017-12-13T09:20:58.266Z,1.77
2017-12-13T09:22:01.691Z,1.83
2017-12-13T09:23:04.755Z,1.86
2017-12-13T09:24:07.825Z,1.87
2017-12-13T09:25:10.901Z,1.86
2017-12-13T09:26:13.902Z,1.89
2017-12-13T09:27:16.900Z,1.93
2017-12-13T09:28:20.369Z,1.92
2017-12-13T09:29:23.375Z,1.90
2017-12-13T09:30:26.368Z,1.89
2017-12-13T09:31:29.775Z,1.88
2017-12-13T09:32:32.877Z,1.91
2017-12-13T09:33:35.860Z,1.89
2017-12-13T09:34:39.283Z,1.91
2017-12-13T09:35:42.237Z,1.90
2017-12-13T09:36:45.246Z,1.88
2017-12-13T09:37:48.289Z,1.91
2017-12-13T09:38:51.383Z,1.91
2017-12-13T09:39:54.370Z,1.90
2017-12-13T09:40:57.756Z,1.87
2017-12-13T09:42:00.824Z,1.92
2017-12-13T09:43:03.904Z,1.86
2017-12-13T09:44:07.094Z,1.89
2017-12-13T09:45:10.086Z,1.93
2017-12-13T09:46:13.191Z,1.92
2017-12-13T09:47:17.834Z,1.90
2017-12-13T09:48:21.886Z,1.88
2017-12-13T09:49:25.961Z,1.87
2017-12-13T09:50:28.908Z,1.96
2017-12-13T09:51:31.950Z,1.90
2017-12-13T09:52:35.125Z,1.88
2017-12-13T09:53:38.528Z,1.85
2017-12-13T09:54:42.480Z,1.88
2017-12-13T09:55:45.455Z,1.89
2017-12-13T09:56:49.017Z,1.87
2017-12-13T09:57:52.017Z,1.86
2017-12-13T09:58:57.669Z,1.95
2017-12-13T10:00:01.016Z,1.97
2017-12-13T10:01:04.045Z,1.98
2017-12-13T10:02:07.060Z,1.99
2017-12-13T10:03:10.253Z,1.91
2017-12-13T10:04:13.253Z,1.93
2017-12-13T10:05:16.178Z,1.93
2017-12-13T10:06:19.407Z,1.95
2017-12-13T10:07:22.284Z,1.89
2017-12-13T10:08:25.220Z,1.91
2017-12-13T10:09:28.242Z,1.87
2017-12-13T10:10:31.190Z,1.90
2017-12-13T10:11:34.159Z,1.88
2017-12-13T10:12:37.675Z,1.90
2017-12-13T10:13:40.628Z,1.89
2017-12-13T10:14:43.558Z,1.91
2017-12-13T10:15:46.552Z,1.95
2017-12-13T10:16:49.510Z,1.84
2017-12-13T10:17:52.544Z,1.90
2017-12-13T10:18:56.027Z,1.86
2017-12-13T10:19:59.056Z,1.85
2017-12-13T10:21:02.096Z,1.82
2017-12-13T10:22:05.048Z,1.82
2017-12-13T10:23:08.106Z,1.81
2017-12-13T10:24:11.072Z,1.72
2017-12-13T10:25:14.327Z,1.64
2017-12-13T10:26:17.631Z,1.55
2017-12-13T10:27:20.716Z,1.52
2017-12-13T10:28:23.745Z,1.50
2017-12-13T10:29:26.693Z,1.49
2017-12-13T10:30:30.071Z,1.45
2017-12-13T10:31:33.463Z,1.37
2017-12-13T10:32:36.427Z,1.30
2017-12-13T10:33:39.388Z,1.32
2017-12-13T10:34:42.491Z,1.16
2017-12-13T10:35:45.423Z,1.09
2017-12-13T10:36:48.403Z,1.10
2017-12-13T10:37:51.694Z,1.03
2017-12-13T10:38:54.687Z,0.93
2017-12-13T10:39:57.718Z,0.94
2017-12-13T10:41:00.777Z,0.87
2017-12-13T10:42:03.800Z,0.97
2017-12-13T10:43:06.809Z,0.86
2017-12-13T10:44:10.179Z,0.86
2017-12-13T10:45:13.224Z,0.89
2017-12-13T10:46:16.211Z,0.92
2017-12-13T10:47:19.247Z,0.83
2017-12-13T10:48:22.328Z,0.94
2017-12-13T10:49:25.365Z,0.90
2017-12-13T10:50:28.836Z,0.89
2017-12-13T10:51:31.869Z,0.87
2017-12-13T10:52:34.917Z,0.88
2017-12-13T10:53:37.978Z,0.81
2017-12-13T10:54:41.024Z,0.69
2017-12-13T10:55:44.027Z,0.75
2017-12-13T10:56:47.363Z,0.71
2017-12-13T10:57:50.311Z,0.65
2017-12-13T10:58:53.359Z,0.67
2017-12-13T10:59:56.313Z,0.72
2017-12-13T11:00:59.476Z,0.62
2017-12-13T11:02:02.549Z,0.66
2017-12-13T11:03:06.025Z,0.58
2017-12-13T11:04:09.034Z,0.67
2017-12-13T11:05:12.011Z,0.63
2017-12-13T11:06:14.994Z,0.65
2017-12-13T11:07:18.088Z,0.57
2017-12-13T11:08:21.086Z,0.72
2017-12-13T11:09:24.473Z,0.71
2017-12-13T11:10:27.476Z,0.59
2017-12-13T11:11:30.466Z,0.68
2017-12-13T11:12:33.458Z,0.69
2017-12-13T11:13:36.505Z,0.66
2017-12-13T11:14:39.531Z,0.66
2017-12-13T11:15:43.010Z,0.73
2017-12-13T11:16:46.064Z,0.80
2017-12-13T11:17:49.071Z,0.73
2017-12-13T11:18:52.211Z,0.70
2017-12-13T11:19:55.224Z,0.88
2017-12-13T11:20:58.233Z,0.79
2017-12-13T11:22:01.618Z,0.84
2017-12-13T11:23:04.717Z,0.75
2017-12-13T11:24:07.809Z,0.78
2017-12-13T11:25:10.792Z,0.77
2017-12-13T11:26:13.851Z,0.81
2017-12-13T11:27:16.807Z,0.88
2017-12-13T11:28:20.284Z,0.82
2017-12-13T11:29:23.320Z,0.93
2017-12-13T11:30:26.379Z,0.88
2017-12-13T11:31:29.801Z,0.91
2017-12-13T11:32:32.893Z,0.87
2017-12-13T11:33:37.397Z,0.80
2017-12-13T11:34:40.864Z,0.90
2017-12-13T11:35:43.878Z,0.91
2017-12-13T11:36:46.846Z,0.90
2017-12-13T11:37:49.799Z,0.95
2017-12-13T11:38:52.867Z,0.95
2017-12-13T11:39:55.888Z,0.88
2017-12-13T11:40:59.280Z,0.91
2017-12-13T11:42:02.352Z,1.02
2017-12-13T11:43:05.413Z,0.85
2017-12-13T11:44:08.453Z,0.87
2017-12-13T11:45:35.844Z,0.92
2017-12-13T11:46:39.104Z,1.01
2017-12-13T11:47:42.098Z,0.81
2017-12-13T11:48:45.085Z,0.96
2017-12-13T11:49:48.166Z,0.98
2017-12-13T11:50:51.199Z,0.91
2017-12-13T11:51:54.211Z,0.98
2017-12-13T11:52:57.542Z,0.96
2017-12-13T11:54:00.566Z,0.93
2017-12-13T11:55:03.541Z,0.89
2017-12-13T11:56:06.609Z,0.83
2017-12-13T11:57:09.638Z,0.98
2017-12-13T11:58:12.588Z,1.00
2017-12-13T11:59:16.043Z,1.01
2017-12-13T12:00:19.058Z,1.06
2017-12-13T12:01:22.048Z,1.02
2017-12-13T12:02:25.082Z,1.01
2017-12-13T12:03:28.001Z,0.97
2017-12-13T12:04:31.435Z,0.97
2017-12-13T12:05:34.854Z,0.94
2017-12-13T12:06:37.818Z,0.91
2017-12-13T12:07:40.893Z,0.92
2017-12-13T12:08:44.448Z,1.04
2017-12-13T12:09:47.530Z,1.04
2017-12-13T12:10:50.545Z,0.97
2017-12-13T12:11:53.877Z,0.97
2017-12-13T12:12:56.993Z,1.03
2017-12-13T12:14:00.209Z,1.05
2017-12-13T12:15:03.364Z,0.95
2017-12-13T12:16:06.385Z,1.01
2017-12-13T12:17:09.479Z,1.03
2017-12-13T12:18:12.920Z,0.99
2017-12-13T12:19:16.055Z,1.16
2017-12-13T12:20:19.060Z,1.18
2017-12-13T12:21:22.151Z,1.29
2017-12-13T12:22:25.168Z,1.17
2017-12-13T12:23:28.192Z,1.15
2017-12-13T12:24:32.502Z,1.14
2017-12-13T12:25:35.546Z,1.20
2017-12-13T12:26:38.570Z,1.33
2017-12-13T12:27:41.529Z,1.32
2017-12-13T12:28:44.793Z,1.35
2017-12-13T12:29:47.852Z,1.49
2017-12-13T12:30:51.454Z,1.45
2017-12-13T12:31:54.645Z,1.41
2017-12-13T12:32:58.126Z,1.51
2017-12-13T12:34:01.147Z,1.50
2017-12-13T12:35:04.096Z,1.48
2017-12-13T12:36:07.106Z,1.58
2017-12-13T12:37:11.175Z,1.71
2017-12-13T12:38:15.361Z,1.71
2017-12-13T12:39:18.490Z,1.67
2017-12-13T12:40:21.504Z,1.62
2017-12-13T12:41:24.661Z,1.71
2017-12-13T12:42:27.764Z,1.76
2017-12-13T12:43:31.104Z,1.71
2017-12-13T12:44:34.167Z,1.68
2017-12-13T12:45:37.227Z,1.67
2017-12-13T12:46:40.222Z,1.75
2017-12-13T12:47:43.352Z,1.69
2017-12-13T12:48:46.710Z,1.67
2017-12-13T12:49:50.839Z,1.72
2017-12-13T12:51:06.229Z,1.69
2017-12-13T12:52:12.566Z,1.73
2017-12-13T12:53:15.736Z,1.75
2017-12-13T12:54:18.870Z,1.77
2017-12-13T12:55:21.916Z,1.95
2017-12-13T12:56:26.160Z,1.82
2017-12-13T12:57:29.378Z,1.81
2017-12-13T12:58:32.478Z,1.81
2017-12-13T12:59:35.561Z,1.76
2017-12-13T13:00:38.569Z,1.83
2017-12-13T13:01:41.589Z,1.87
2017-12-13T13:02:46.086Z,1.92
2017-12-13T13:03:49.581Z,2.05
2017-12-13T13:04:52.535Z,2.02
2017-12-13T13:05:55.615Z,1.95
2017-12-13T13:06:58.688Z,1.91
2017-12-13T13:08:01.772Z,1.91
2017-12-13T13:09:05.413Z,1.89
2017-12-13T13:10:08.392Z,1.94
2017-12-13T13:11:11.512Z,2.03
2017-12-13T13:12:14.639Z,2.09
2017-12-13T13:13:17.763Z,2.10
2017-12-13T13:14:21.274Z,2.10
2017-12-13T13:15:24.720Z,1.98
2017-12-13T13:16:28.047Z,1.98
2017-12-13T13:17:31.075Z,2.05
2017-12-13T13:18:34.102Z,2.07
2017-12-13T13:19:37.157Z,2.02
2017-12-13T13:20:40.508Z,2.01
2017-12-13T13:21:43.459Z,2.07
2017-12-13T13:22:46.536Z,2.01
2017-12-13T13:23:49.567Z,2.02
2017-12-13T13:24:52.666Z,2.04
2017-12-13T13:25:55.770Z,1.87
2017-12-13T13:26:59.269Z,1.83
2017-12-13T13:28:02.286Z,1.82
2017-12-13T13:29:05.407Z,1.79
2017-12-13T13:30:08.637Z,1.72
2017-12-13T13:31:11.802Z,1.71
2017-12-13T13:32:15.284Z,1.72
2017-12-13T13:33:18.835Z,1.67
2017-12-13T13:34:21.874Z,1.69
2017-12-13T13:35:24.930Z,1.64
2017-12-13T13:36:27.966Z,1.63
2017-12-13T13:37:30.984Z,1.53
2017-12-13T13:38:34.367Z,1.43
2017-12-13T13:39:37.838Z,1.52
2017-12-13T13:40:41.055Z,1.42
2017-12-13T13:41:44.115Z,1.51
2017-12-13T13:42:47.534Z,1.43
2017-12-13T13:43:51.016Z,1.44
2017-12-13T13:44:54.108Z,1.39
2017-12-13T13:45:57.599Z,1.44
2017-12-13T13:47:01.069Z,1.37
2017-12-13T13:48:04.283Z,1.38
2017-12-13T13:49:07.746Z,1.28
2017-12-13T13:50:11.140Z,1.42
2017-12-13T13:51:14.692Z,1.36
2017-12-13T13:52:18.107Z,1.36
2017-12-13T13:53:21.165Z,1.40
2017-12-13T13:54:24.155Z,1.44
2017-12-13T13:55:27.820Z,1.41
2017-12-13T13:56:31.165Z,1.46
2017-12-13T13:57:34.792Z,1.37
2017-12-13T13:58:38.136Z,1.51
2017-12-13T13:59:41.160Z,1.39
2017-12-13T14:00:44.516Z,1.57
2017-12-13T14:01:47.788Z,1.49